createdAt,value
2023-01-22T00:00:06.019Z,15.60
2023-01-22T00:02:36.172Z,7.83
2023-01-22T00:05:04.012Z,9.40
2023-01-22T00:07:30.737Z,9.57
2023-01-22T00:09:57.372Z,12.37
2023-01-22T00:12:24.146Z,13.13
2023-01-22T00:14:50.994Z,9.50
2023-01-22T00:17:17.720Z,11.23
2023-01-22T00:19:44.495Z,10.47
2023-01-22T00:22:12.222Z,8.77
2023-01-22T00:24:41.754Z,11.27
2023-01-22T00:27:08.348Z,11.80
2023-01-22T00:29:35.147Z,9.50
2023-01-22T00:32:02.360Z,8.47
2023-01-22T00:34:29.135Z,7.70
2023-01-22T00:36:56.202Z,9.50
2023-01-22T00:40:35.564Z,9.13
2023-01-22T00:43:07.787Z,11.67
2023-01-22T00:45:34.443Z,9.33
2023-01-22T00:48:01.306Z,10.40
2023-01-22T00:57:40.792Z,6.67
2023-01-22T01:00:08.435Z,10.80
2023-01-22T01:02:55.454Z,8.63
2023-01-22T01:05:22.983Z,10.47
2023-01-22T01:07:49.696Z,10.40
2023-01-22T01:10:16.886Z,6.20
2023-01-22T01:12:46.942Z,9.27
2023-01-22T01:15:16.410Z,6.20
2023-01-22T01:17:43.187Z,8.87
2023-01-22T01:20:11.503Z,11.07
2023-01-22T01:22:57.142Z,6.53
2023-01-22T01:25:26.865Z,6.60
2023-01-22T01:27:55.175Z,9.83
2023-01-22T01:30:21.903Z,8.77
2023-01-22T01:32:49.462Z,7.07
2023-01-22T01:35:16.224Z,8.33
2023-01-22T01:37:42.838Z,8.53
2023-01-22T01:40:10.036Z,7.20
2023-01-22T01:42:39.650Z,6.30
2023-01-22T01:45:26.683Z,10.30
2023-01-22T01:47:57.335Z,8.47
2023-01-22T01:50:28.660Z,9.87
2023-01-22T01:52:56.841Z,10.70
2023-01-22T01:55:30.494Z,8.83
2023-01-22T01:58:01.020Z,10.05
2023-01-22T02:00:31.428Z,11.63
2023-01-22T02:02:58.953Z,11.60
2023-01-22T02:05:26.193Z,9.33
2023-01-22T02:07:52.847Z,10.07
2023-01-22T02:10:19.913Z,13.50
2023-01-22T02:12:46.691Z,9.43
2023-01-22T02:15:13.866Z,12.23
2023-01-22T02:17:40.676Z,10.50
2023-01-22T02:20:07.628Z,10.43
2023-01-22T02:22:36.686Z,9.17
2023-01-22T02:25:03.479Z,14.20
2023-01-22T02:27:30.118Z,10.70
2023-01-22T02:29:56.881Z,11.87
2023-01-22T02:32:23.530Z,8.17
2023-01-22T02:34:50.179Z,10.27
2023-01-22T02:37:16.997Z,10.20
2023-01-22T02:39:43.668Z,12.93
2023-01-22T02:42:10.492Z,9.20
2023-01-22T02:44:37.147Z,7.83
2023-01-22T02:47:04.114Z,7.40
2023-01-22T02:49:31.783Z,10.80
2023-01-22T02:51:58.620Z,7.37
2023-01-22T02:54:25.477Z,7.90
2023-01-22T02:56:52.064Z,9.97
2023-01-22T02:59:18.737Z,11.27
2023-01-22T03:01:45.452Z,8.77
2023-01-22T03:04:12.133Z,9.43
2023-01-22T03:06:43.207Z,9.33
2023-01-22T03:09:11.036Z,9.10
2023-01-22T03:11:38.822Z,11.93
2023-01-22T03:14:25.302Z,9.70
2023-01-22T03:17:11.115Z,10.50
2023-01-22T03:19:56.459Z,11.10
2023-01-22T03:22:23.857Z,10.10
2023-01-22T03:24:52.071Z,10.47
2023-01-22T03:27:20.730Z,11.20
2023-01-22T03:29:47.352Z,11.40
2023-01-22T03:32:14.290Z,9.73
2023-01-22T03:34:41.031Z,9.80
2023-01-22T03:37:08.848Z,11.60
2023-01-22T03:39:35.525Z,10.03
2023-01-22T03:42:02.149Z,9.13
2023-01-22T03:44:28.841Z,7.77
2023-01-22T03:46:55.473Z,12.13
2023-01-22T03:49:22.180Z,9.43
2023-01-22T03:51:48.841Z,9.37
2023-01-22T03:54:16.608Z,9.27
2023-01-22T03:56:43.459Z,11.60
2023-01-22T03:59:10.760Z,6.33
2023-01-22T04:01:37.428Z,9.33
2023-01-22T04:04:04.321Z,10.17
2023-01-22T04:06:31.004Z,9.60
2023-01-22T04:08:57.702Z,11.63
2023-01-22T04:11:24.678Z,8.80
2023-01-22T04:13:51.328Z,10.53
2023-01-22T04:16:18.164Z,11.50
2023-01-22T04:18:44.876Z,8.47
2023-01-22T04:21:11.576Z,10.10
2023-01-22T04:23:38.201Z,7.73
2023-01-22T04:26:04.981Z,9.23
2023-01-22T04:28:31.635Z,9.47
2023-01-22T04:30:58.369Z,11.13
2023-01-22T04:33:26.182Z,7.43
2023-01-22T04:35:54.626Z,9.17
2023-01-22T04:38:21.360Z,8.47
2023-01-22T04:40:48.245Z,9.43
2023-01-22T04:43:14.913Z,12.43
2023-01-22T04:45:41.637Z,10.90
2023-01-22T04:48:09.261Z,8.37
2023-01-22T04:50:36.003Z,11.53
2023-01-22T04:53:03.091Z,10.00
2023-01-22T04:55:30.225Z,9.60
2023-01-22T04:57:57.893Z,15.07
2023-01-22T05:00:25.621Z,8.87
2023-01-22T05:02:59.426Z,9.83
2023-01-22T05:05:27.625Z,11.82
2023-01-22T05:07:55.074Z,12.23
2023-01-22T05:10:22.408Z,8.67
2023-01-22T05:12:49.318Z,11.10
2023-01-22T05:15:23.990Z,10.43
2023-01-22T05:17:50.915Z,11.03
2023-01-22T05:20:17.884Z,11.73
2023-01-22T05:22:44.699Z,9.93
2023-01-22T05:25:11.403Z,12.03
2023-01-22T05:27:38.013Z,8.20
2023-01-22T05:30:05.942Z,12.87
2023-01-22T05:32:32.823Z,7.67
2023-01-22T05:34:59.440Z,8.60
2023-01-22T05:37:26.027Z,8.97
2023-01-22T05:39:52.704Z,7.60
2023-01-22T05:42:19.433Z,10.33
2023-01-22T05:44:46.021Z,10.03
2023-01-22T05:47:13.635Z,8.10
2023-01-22T05:49:40.505Z,9.37
2023-01-22T05:52:10.690Z,9.60
2023-01-22T05:54:38.857Z,9.33
2023-01-22T05:57:05.807Z,9.63
2023-01-22T05:59:32.417Z,9.53
2023-01-22T06:01:59.083Z,8.87
2023-01-22T06:04:25.821Z,7.57
2023-01-22T06:06:52.544Z,8.67
2023-01-22T06:09:19.197Z,10.50
2023-01-22T06:11:45.924Z,7.67
2023-01-22T06:14:12.496Z,9.93
2023-01-22T06:16:39.166Z,7.73
2023-01-22T06:19:06.114Z,8.27
2023-01-22T06:21:32.713Z,6.27
2023-01-22T06:23:59.339Z,7.20
2023-01-22T06:26:25.973Z,8.47
2023-01-22T06:28:53.024Z,7.53
2023-01-22T06:31:19.790Z,6.93
2023-01-22T06:33:46.504Z,9.70
2023-01-22T06:36:13.251Z,7.20
2023-01-22T06:38:42.652Z,8.50
2023-01-22T06:41:09.802Z,7.17
2023-01-22T06:43:37.636Z,8.90
2023-01-22T06:46:05.032Z,6.47
2023-01-22T06:48:31.918Z,9.00
2023-01-22T06:50:59.988Z,8.80
2023-01-22T06:53:27.342Z,5.53
2023-01-22T06:55:54.500Z,6.83
2023-01-22T06:58:21.267Z,5.90
2023-01-22T07:00:48.085Z,6.30
2023-01-22T07:03:15.905Z,6.67
2023-01-22T07:05:42.697Z,6.03
2023-01-22T07:08:13.634Z,5.57
2023-01-22T07:10:40.333Z,5.87
2023-01-22T07:13:09.063Z,5.67
2023-01-22T07:15:35.959Z,4.70
2023-01-22T07:18:02.742Z,5.90
2023-01-22T07:20:29.521Z,6.70
2023-01-22T07:22:59.195Z,6.27
2023-01-22T07:25:27.399Z,4.70
2023-01-22T07:28:01.614Z,5.60
2023-01-22T07:30:28.674Z,5.37
2023-01-22T07:32:59.626Z,4.70
2023-01-22T07:35:26.953Z,4.67
2023-01-22T07:37:55.158Z,4.80
2023-01-22T07:40:24.256Z,5.57
2023-01-22T07:42:51.972Z,5.20
2023-01-22T07:45:19.437Z,4.23
2023-01-22T07:47:58.849Z,5.30
2023-01-22T07:50:30.805Z,4.67
2023-01-22T07:52:57.890Z,4.37
2023-01-22T07:55:24.698Z,4.30
2023-01-22T07:58:17.672Z,4.80
2023-01-22T08:00:44.557Z,4.97
2023-01-22T08:03:11.357Z,5.60
2023-01-22T08:05:42.429Z,4.10
2023-01-22T08:08:14.578Z,4.13
2023-01-22T08:10:41.863Z,3.70
2023-01-22T08:13:08.876Z,4.73
2023-01-22T08:15:35.737Z,4.23
2023-01-22T08:18:02.599Z,4.77
2023-01-22T08:20:29.310Z,3.23
2023-01-22T08:23:00.243Z,4.37
2023-01-22T08:25:28.055Z,4.57
2023-01-22T08:27:55.061Z,5.03
2023-01-22T08:30:26.082Z,4.70
2023-01-22T08:32:53.599Z,3.97
2023-01-22T08:35:21.738Z,4.37
2023-01-22T08:37:48.601Z,5.97
2023-01-22T08:40:15.826Z,3.93
2023-01-22T08:42:42.800Z,4.83
2023-01-22T08:45:10.044Z,5.03
2023-01-22T08:47:36.720Z,4.57
2023-01-22T08:50:04.072Z,4.63
2023-01-22T08:52:30.961Z,5.70
2023-01-22T08:54:57.775Z,4.90
2023-01-22T08:57:24.468Z,5.67
2023-01-22T09:00:00.744Z,4.50
2023-01-22T09:02:28.281Z,6.30
2023-01-22T09:04:55.110Z,6.20
2023-01-22T09:07:21.824Z,6.70
2023-01-22T09:09:48.535Z,8.57
2023-01-22T09:12:15.143Z,6.77
2023-01-22T09:14:41.862Z,5.57
2023-01-22T09:17:08.855Z,6.37
2023-01-22T09:19:35.574Z,7.83
2023-01-22T09:22:06.616Z,11.80
2023-01-22T09:24:33.800Z,8.97
2023-01-22T09:27:00.521Z,8.23
2023-01-22T09:29:27.302Z,7.93
2023-01-22T09:31:54.066Z,9.03
2023-01-22T09:34:20.749Z,9.40
2023-01-22T09:36:47.451Z,8.40
2023-01-22T09:39:14.263Z,11.00
2023-01-22T09:41:43.475Z,7.53
2023-01-22T09:44:34.487Z,8.63
2023-01-22T09:47:12.896Z,9.77
2023-01-22T09:50:04.610Z,7.83
2023-01-22T09:52:34.096Z,9.80
2023-01-22T09:55:01.034Z,11.03
2023-01-22T09:57:32.218Z,8.70
2023-01-22T09:59:59.847Z,9.30
2023-01-22T10:02:31.306Z,9.60
2023-01-22T10:05:01.846Z,7.60
2023-01-22T10:07:36.855Z,9.60
2023-01-22T10:12:44.783Z,14.00
2023-01-22T10:15:15.490Z,10.57
2023-01-22T10:17:42.502Z,8.53
2023-01-22T10:20:11.139Z,10.13
2023-01-22T10:22:37.948Z,11.87
2023-01-22T10:25:05.163Z,10.33
2023-01-22T10:27:35.487Z,9.53
2023-01-22T10:30:09.474Z,9.70
2023-01-22T10:32:36.186Z,11.77
2023-01-22T10:35:05.771Z,11.97
2023-01-22T10:37:44.532Z,15.97
2023-01-22T10:40:34.379Z,9.10
2023-01-22T10:43:15.654Z,12.93
2023-01-22T10:45:56.937Z,11.37
2023-01-22T10:48:24.479Z,15.93
2023-01-22T10:51:14.420Z,15.43
2023-01-22T10:53:47.636Z,16.40
2023-01-22T10:56:25.444Z,13.70
2023-01-22T10:58:52.324Z,17.57
2023-01-22T11:01:30.091Z,20.10
2023-01-22T11:03:56.918Z,17.83
2023-01-22T11:06:32.809Z,14.37
2023-01-22T11:09:16.727Z,17.00
2023-01-22T11:11:49.859Z,17.10
2023-01-22T11:14:29.968Z,18.23
2023-01-22T11:16:59.283Z,19.73
2023-01-22T11:19:36.877Z,18.57
2023-01-22T11:22:11.898Z,129.27
2023-01-22T11:27:20.445Z,109.80
2023-01-22T11:30:21.132Z,19.25
2023-01-22T11:33:04.106Z,13.13
2023-01-22T11:35:41.764Z,16.30
2023-01-22T11:38:44.056Z,15.27
2023-01-22T11:41:47.587Z,13.23
2023-01-22T11:44:42.576Z,13.80
2023-01-22T11:47:25.018Z,16.50
2023-01-22T11:50:00.902Z,12.30
2023-01-22T11:52:36.518Z,12.83
2023-01-22T11:55:24.576Z,16.77
2023-01-22T11:58:01.740Z,14.10
2023-01-22T12:00:42.524Z,15.57
2023-01-22T12:03:12.121Z,12.03
2023-01-22T12:05:59.590Z,12.77
2023-01-22T12:08:35.306Z,13.67
2023-01-22T12:11:23.880Z,11.87
2023-01-22T12:14:11.899Z,12.40
2023-01-22T12:17:17.061Z,14.70
2023-01-22T12:20:09.951Z,15.52
2023-01-22T12:22:38.410Z,14.77
2023-01-22T12:25:21.269Z,13.30
2023-01-22T12:27:52.449Z,14.70
2023-01-22T12:30:37.016Z,15.27
2023-01-22T12:35:32.722Z,11.90
2023-01-22T12:38:12.901Z,12.37
2023-01-22T12:40:52.591Z,23.03
2023-01-22T12:43:26.927Z,14.13
2023-01-22T12:48:26.703Z,15.17
2023-01-22T12:50:56.222Z,12.83
2023-01-22T12:53:29.983Z,15.30
2023-01-22T12:56:09.706Z,15.73
2023-01-22T12:58:41.005Z,13.23
2023-01-22T13:01:23.318Z,14.67
2023-01-22T13:04:07.131Z,12.40
2023-01-22T13:06:41.573Z,19.70
2023-01-22T13:09:26.267Z,13.37
2023-01-22T13:11:52.956Z,13.13
2023-01-22T13:14:21.681Z,13.83
2023-01-22T13:16:59.550Z,13.63
2023-01-22T13:19:29.094Z,14.93
2023-01-22T13:21:59.790Z,13.97
2023-01-22T13:24:26.379Z,17.83
2023-01-22T13:27:01.138Z,17.23
2023-01-22T13:29:34.021Z,12.67
2023-01-22T13:32:06.355Z,14.27
2023-01-22T13:34:33.005Z,13.77
2023-01-22T13:36:59.843Z,16.50
2023-01-22T13:39:32.391Z,14.83
2023-01-22T13:42:01.493Z,18.10
2023-01-22T13:44:34.381Z,14.83
2023-01-22T13:47:01.660Z,13.83
2023-01-22T13:49:42.801Z,18.10
2023-01-22T13:52:14.567Z,13.90
2023-01-22T13:54:43.711Z,18.73
2023-01-22T13:57:16.102Z,16.20
2023-01-22T13:59:53.135Z,19.40
2023-01-22T14:02:21.965Z,18.33
2023-01-22T14:04:49.174Z,17.10
2023-01-22T14:07:27.542Z,18.97
2023-01-22T14:09:55.261Z,16.20
2023-01-22T14:12:26.907Z,19.10
2023-01-22T14:14:54.206Z,16.67
2023-01-22T14:17:24.739Z,16.77
2023-01-22T14:19:51.778Z,18.13
2023-01-22T14:22:18.688Z,20.50
2023-01-22T14:24:45.375Z,22.07
2023-01-22T14:27:11.993Z,18.90
2023-01-22T14:29:38.777Z,19.93
2023-01-22T14:32:05.462Z,17.87
2023-01-22T14:34:32.099Z,20.50
2023-01-22T14:36:58.765Z,15.70
2023-01-22T14:39:25.562Z,19.03
2023-01-22T14:41:52.221Z,16.90
2023-01-22T14:44:19.055Z,20.50
2023-01-22T14:46:45.883Z,17.43
2023-01-22T14:49:12.691Z,16.37
2023-01-22T14:51:39.426Z,18.40
2023-01-22T14:54:06.077Z,22.27
2023-01-22T14:56:32.709Z,19.30
2023-01-22T14:58:59.397Z,18.77
2023-01-22T15:01:28.232Z,21.77
2023-01-22T15:03:54.850Z,18.83
2023-01-22T15:06:21.482Z,18.20
2023-01-22T15:08:48.120Z,19.50
2023-01-22T15:11:14.790Z,22.70
2023-01-22T15:13:44.287Z,18.73
2023-01-22T15:16:11.407Z,21.77
2023-01-22T15:18:38.636Z,19.53
2023-01-22T15:21:06.007Z,22.77
2023-01-22T15:23:33.947Z,18.60
2023-01-22T15:26:03.543Z,22.37
2023-01-22T15:28:30.759Z,17.30
2023-01-22T15:31:01.464Z,18.37
2023-01-22T15:33:28.225Z,20.13
2023-01-22T15:35:54.955Z,20.87
2023-01-22T15:38:21.753Z,20.83
2023-01-22T15:40:51.666Z,21.03
2023-01-22T15:43:18.277Z,20.23
2023-01-22T15:45:44.906Z,21.13
2023-01-22T15:48:13.923Z,18.13
2023-01-22T15:50:41.630Z,22.10
2023-01-22T15:53:08.334Z,21.57
2023-01-22T15:55:35.555Z,20.97
2023-01-22T15:58:02.319Z,23.20
2023-01-22T16:00:29.348Z,19.17
2023-01-22T16:02:56.078Z,20.87
2023-01-22T16:05:25.928Z,21.20
2023-01-22T16:07:52.765Z,21.03
2023-01-22T16:10:20.172Z,23.57
2023-01-22T16:12:46.970Z,20.43
2023-01-22T16:15:13.552Z,20.63
2023-01-22T16:17:40.151Z,20.83
2023-01-22T16:20:07.789Z,19.43
2023-01-22T16:22:34.457Z,19.63
2023-01-22T16:25:01.123Z,19.73
2023-01-22T16:27:27.882Z,21.67
2023-01-22T16:29:54.845Z,18.93
2023-01-22T16:32:21.535Z,21.93
2023-01-22T16:34:48.202Z,21.40
2023-01-22T16:37:14.905Z,16.13
2023-01-22T16:39:41.598Z,21.07
2023-01-22T16:42:08.186Z,22.67
2023-01-22T16:44:35.065Z,20.27
2023-01-22T16:47:01.767Z,18.53
2023-01-22T16:49:30.465Z,21.10
2023-01-22T16:52:00.272Z,23.77
2023-01-22T16:54:34.899Z,18.00
2023-01-22T16:57:06.131Z,22.43
2023-01-22T16:59:36.881Z,22.47
2023-01-22T17:02:05.241Z,18.00
2023-01-22T17:04:31.893Z,19.10
2023-01-22T17:06:59.549Z,18.20
2023-01-22T17:09:28.704Z,19.57
2023-01-22T17:11:58.253Z,19.23
2023-01-22T17:14:27.081Z,16.60
2023-01-22T17:16:53.855Z,15.47
2023-01-22T17:19:20.499Z,15.23
2023-01-22T17:21:49.712Z,16.77
2023-01-22T17:24:16.343Z,18.53
2023-01-22T17:26:42.962Z,20.33
2023-01-22T17:29:10.335Z,24.27
2023-01-22T17:31:37.991Z,16.17
2023-01-22T17:34:08.752Z,19.30
2023-01-22T17:36:35.690Z,20.03
2023-01-22T17:39:04.678Z,18.90
2023-01-22T17:41:31.575Z,20.30
2023-01-22T17:43:58.869Z,20.87
2023-01-22T17:46:31.961Z,22.93
2023-01-22T17:49:01.098Z,21.80
2023-01-22T17:51:28.822Z,20.20
2023-01-22T17:53:56.908Z,18.90
2023-01-22T17:56:26.397Z,22.97
2023-01-22T17:58:57.473Z,23.93
2023-01-22T18:01:27.923Z,19.73
2023-01-22T18:03:57.533Z,19.43
2023-01-22T18:06:24.829Z,22.27
2023-01-22T18:08:51.563Z,20.53
2023-01-22T18:11:20.466Z,19.70
2023-01-22T18:13:47.724Z,21.90
2023-01-22T18:16:16.494Z,17.63
2023-01-22T18:18:43.892Z,16.80
2023-01-22T18:21:16.625Z,20.07
2023-01-22T18:23:44.207Z,16.73
2023-01-22T18:26:11.015Z,15.90
2023-01-22T18:28:41.596Z,19.73
2023-01-22T18:31:11.598Z,15.67
2023-01-22T18:33:39.361Z,19.30
2023-01-22T18:36:12.275Z,17.20
2023-01-22T18:38:39.861Z,17.97
2023-01-22T18:41:10.389Z,18.07
2023-01-22T18:43:38.286Z,17.87
2023-01-22T18:46:12.387Z,16.23
2023-01-22T18:48:40.229Z,15.80
2023-01-22T18:51:09.184Z,17.43
2023-01-22T18:53:36.408Z,15.90
2023-01-22T18:56:05.100Z,15.80
2023-01-22T18:58:33.883Z,15.47
2023-01-22T19:01:12.395Z,19.70
2023-01-22T19:03:41.215Z,16.20
2023-01-22T19:06:13.948Z,15.63
2023-01-22T19:08:46.150Z,15.20
2023-01-22T19:11:14.054Z,16.60
2023-01-22T19:13:42.013Z,17.20
2023-01-22T19:16:10.990Z,17.33
2023-01-22T19:18:42.301Z,13.70
2023-01-22T19:21:12.472Z,16.20
2023-01-22T19:23:39.156Z,14.17
2023-01-22T19:26:15.666Z,17.03
2023-01-22T19:28:42.755Z,12.03
2023-01-22T19:31:17.963Z,14.80
2023-01-22T19:33:45.457Z,12.57
2023-01-22T19:36:12.430Z,14.90
2023-01-22T19:38:40.500Z,14.53
2023-01-22T19:41:08.785Z,16.63
2023-01-22T19:43:35.909Z,14.90
2023-01-22T19:46:09.482Z,14.80
2023-01-22T19:48:36.714Z,14.63
2023-01-22T19:51:08.051Z,15.47
2023-01-22T19:53:35.101Z,17.43
2023-01-22T19:56:02.187Z,11.87
2023-01-22T19:58:28.909Z,13.23
2023-01-22T20:00:58.124Z,14.43
2023-01-22T20:03:26.408Z,14.50
2023-01-22T20:05:53.178Z,16.67
2023-01-22T20:08:22.104Z,14.23
2023-01-22T20:10:58.205Z,17.87
2023-01-22T20:13:24.818Z,11.23
2023-01-22T20:15:52.829Z,16.33
2023-01-22T20:18:19.984Z,15.60
2023-01-22T20:20:57.521Z,12.93
2023-01-22T20:23:26.173Z,14.07
2023-01-22T20:25:53.028Z,17.60
2023-01-22T20:28:19.956Z,18.13
2023-01-22T20:30:57.310Z,16.30
2023-01-22T20:33:28.143Z,14.40
2023-01-22T20:35:56.436Z,15.60
2023-01-22T20:38:23.397Z,13.90
2023-01-22T20:40:50.389Z,16.20
2023-01-22T20:43:17.842Z,14.90
2023-01-22T20:45:44.679Z,15.77
2023-01-22T20:48:11.348Z,14.60
2023-01-22T20:50:42.034Z,15.80
2023-01-22T20:53:08.722Z,14.00
2023-01-22T20:55:35.530Z,13.80
2023-01-22T20:58:07.367Z,16.60
2023-01-22T21:00:37.108Z,15.17
2023-01-22T21:03:03.994Z,21.80
2023-01-22T21:05:30.864Z,17.13
2023-01-22T21:07:57.515Z,15.03
2023-01-22T21:10:24.326Z,16.83
2023-01-22T21:12:52.925Z,15.10
2023-01-22T21:15:19.575Z,16.67
2023-01-22T21:17:46.640Z,16.20
2023-01-22T21:20:13.425Z,15.97
2023-01-22T21:22:41.922Z,18.60
2023-01-22T21:25:09.033Z,13.97
2023-01-22T21:27:36.756Z,16.13
2023-01-22T21:30:09.130Z,16.07
2023-01-22T21:33:01.150Z,16.20
2023-01-22T21:35:35.136Z,19.67
2023-01-22T21:38:01.936Z,17.30
2023-01-22T21:40:28.686Z,14.90
2023-01-22T21:43:20.020Z,17.33
2023-01-22T21:46:27.908Z,16.20
2023-01-22T21:48:58.308Z,16.30
2023-01-22T21:51:29.335Z,17.63
2023-01-22T21:53:58.389Z,16.63
2023-01-22T21:56:26.484Z,19.13
2023-01-22T21:58:53.191Z,19.20
2023-01-22T22:01:21.612Z,20.03
2023-01-22T22:03:54.453Z,19.17
2023-01-22T22:06:24.420Z,18.73
2023-01-22T22:08:53.929Z,19.17
2023-01-22T22:11:20.552Z,16.13
2023-01-22T22:13:49.847Z,16.97
2023-01-22T22:16:16.570Z,16.97
2023-01-22T22:18:43.220Z,15.20
2023-01-22T22:21:10.455Z,20.27
2023-01-22T22:23:37.390Z,15.03
2023-01-22T22:26:05.175Z,18.83
2023-01-22T22:28:32.886Z,15.80
2023-01-22T22:31:11.868Z,18.53
2023-01-22T22:33:46.802Z,18.20
2023-01-22T22:36:14.730Z,17.50
2023-01-22T22:38:41.648Z,14.70
2023-01-22T22:41:12.499Z,18.20
2023-01-22T22:43:44.111Z,18.53
2023-01-22T22:46:20.214Z,17.90
2023-01-22T22:48:47.447Z,18.17
2023-01-22T22:51:23.175Z,15.43
2023-01-22T22:53:52.499Z,18.57
2023-01-22T22:56:19.155Z,18.57
2023-01-22T22:58:46.417Z,20.73
2023-01-22T23:01:18.055Z,22.57
2023-01-22T23:03:45.094Z,18.73
2023-01-22T23:06:14.224Z,20.53
2023-01-22T23:08:42.791Z,19.13
2023-01-22T23:11:11.285Z,20.37
2023-01-22T23:13:38.655Z,20.87
2023-01-22T23:16:11.552Z,16.20
2023-01-22T23:18:38.332Z,19.00
2023-01-22T23:21:06.418Z,21.57
2023-01-22T23:23:33.478Z,21.17
2023-01-22T23:26:00.660Z,22.90
2023-01-22T23:28:29.619Z,21.73
2023-01-22T23:30:56.378Z,24.97
2023-01-22T23:33:23.063Z,22.30
2023-01-22T23:35:51.297Z,20.70
2023-01-22T23:38:18.021Z,22.23
2023-01-22T23:40:44.650Z,21.37
2023-01-22T23:43:11.397Z,22.50
2023-01-22T23:45:38.943Z,22.93
2023-01-22T23:48:05.735Z,20.13
2023-01-22T23:50:32.390Z,21.50
2023-01-22T23:53:02.714Z,19.73
2023-01-22T23:55:31.426Z,26.93
2023-01-22T23:57:58.189Z,24.33
